createdAt,value
2022-08-25T00:02:13.786Z,7.53
2022-08-25T00:04:40.528Z,8.25
2022-08-25T00:07:09.091Z,6.88
2022-08-25T00:09:35.949Z,8.35
2022-08-25T00:12:05.096Z,7.10
2022-08-25T00:14:35.602Z,8.18
2022-08-25T00:17:04.711Z,9.07
2022-08-25T00:19:34.819Z,5.85
2022-08-25T00:22:02.450Z,5.95
2022-08-25T00:24:30.669Z,6.20
2022-08-25T00:26:59.044Z,5.00
2022-08-25T00:29:31.885Z,7.45
2022-08-25T00:31:59.446Z,6.82
2022-08-25T00:34:35.540Z,6.97
2022-08-25T00:37:03.771Z,5.68
2022-08-25T00:39:30.560Z,5.88
2022-08-25T00:41:57.807Z,6.45
2022-08-25T00:44:26.117Z,5.38
2022-08-25T00:46:57.518Z,5.40
2022-08-25T00:49:41.970Z,5.15
2022-08-25T00:52:20.430Z,7.15
2022-08-25T00:55:00.162Z,4.80
2022-08-25T00:57:36.181Z,5.80
2022-08-25T01:00:14.337Z,8.10
2022-08-25T01:02:40.992Z,7.07
2022-08-25T01:05:08.538Z,6.75
2022-08-25T01:07:36.505Z,6.93
2022-08-25T01:10:04.759Z,6.93
2022-08-25T01:12:31.314Z,8.75
2022-08-25T01:14:58.451Z,7.53
2022-08-25T01:17:28.192Z,4.95
2022-08-25T01:19:55.800Z,7.28
2022-08-25T01:22:22.577Z,6.25
2022-08-25T01:24:59.412Z,5.32
2022-08-25T01:27:25.934Z,5.25
2022-08-25T01:29:52.737Z,5.82
2022-08-25T01:32:19.590Z,5.28
2022-08-25T01:34:46.491Z,4.75
2022-08-25T01:37:15.644Z,6.05
2022-08-25T01:39:43.016Z,6.13
2022-08-25T01:42:12.612Z,5.07
2022-08-25T01:44:44.120Z,7.28
2022-08-25T01:47:11.865Z,4.82
2022-08-25T01:49:38.443Z,6.60
2022-08-25T01:52:17.095Z,7.20
2022-08-25T01:54:43.729Z,7.47
2022-08-25T01:57:10.414Z,6.00
2022-08-25T01:59:37.184Z,5.88
2022-08-25T02:02:05.465Z,5.53
2022-08-25T02:04:37.362Z,5.10
2022-08-25T02:07:06.055Z,6.50
2022-08-25T02:09:32.663Z,6.63
2022-08-25T02:11:59.469Z,6.80
2022-08-25T02:14:30.849Z,7.28
2022-08-25T02:16:57.482Z,6.07
2022-08-25T02:19:25.812Z,5.50
2022-08-25T02:21:53.739Z,5.55
2022-08-25T02:24:20.922Z,5.85
2022-08-25T02:26:48.018Z,10.13
2022-08-25T02:29:14.824Z,6.15
2022-08-25T02:31:41.609Z,5.95
2022-08-25T02:34:09.326Z,7.18
2022-08-25T02:36:37.311Z,7.07
2022-08-25T02:39:06.139Z,10.90
2022-08-25T02:41:33.567Z,6.68
2022-08-25T02:44:03.842Z,6.22
2022-08-25T02:46:31.032Z,6.15
2022-08-25T02:48:58.330Z,5.22
2022-08-25T02:51:26.467Z,5.03
2022-08-25T02:53:54.326Z,7.05
2022-08-25T02:56:20.868Z,4.88
2022-08-25T02:58:48.042Z,6.65
2022-08-25T03:01:16.404Z,6.03
2022-08-25T03:03:48.596Z,6.05
2022-08-25T03:06:18.321Z,6.03
2022-08-25T03:08:45.227Z,6.38
2022-08-25T03:11:12.062Z,6.53
2022-08-25T03:13:41.124Z,7.05
2022-08-25T03:16:11.157Z,6.82
2022-08-25T03:18:40.913Z,6.68
2022-08-25T03:21:08.386Z,6.03
2022-08-25T03:23:41.197Z,6.55
2022-08-25T03:26:26.809Z,9.27
2022-08-25T03:31:27.589Z,8.05
2022-08-25T03:33:55.842Z,4.75
2022-08-25T03:36:22.639Z,7.93
2022-08-25T03:38:49.210Z,7.13
2022-08-25T03:41:22.420Z,7.72
2022-08-25T03:43:50.679Z,9.23
2022-08-25T03:46:23.106Z,7.28
2022-08-25T03:48:50.005Z,5.35
2022-08-25T03:51:26.013Z,6.60
2022-08-25T03:53:54.653Z,7.30
2022-08-25T03:56:21.249Z,4.82
2022-08-25T03:58:48.365Z,4.45
2022-08-25T04:01:16.059Z,10.05
2022-08-25T04:03:46.229Z,4.80
2022-08-25T04:06:13.565Z,5.50
2022-08-25T04:08:40.369Z,5.93
2022-08-25T04:11:15.685Z,6.38
2022-08-25T04:13:46.580Z,6.63
2022-08-25T04:16:25.046Z,4.80
2022-08-25T04:18:52.878Z,6.40
2022-08-25T04:21:20.925Z,5.82
2022-08-25T04:23:53.378Z,7.40
2022-08-25T04:26:27.646Z,7.82
2022-08-25T04:28:56.146Z,4.27
2022-08-25T04:31:22.773Z,5.63
2022-08-25T04:33:52.765Z,5.32
2022-08-25T04:36:21.214Z,5.22
2022-08-25T04:38:49.678Z,6.88
2022-08-25T04:41:19.146Z,4.97
2022-08-25T04:43:50.122Z,8.18
2022-08-25T04:46:21.078Z,5.93
2022-08-25T04:48:49.299Z,4.57
2022-08-25T04:51:20.399Z,4.03
2022-08-25T04:53:47.206Z,5.70
2022-08-25T04:56:17.650Z,4.93
2022-08-25T04:58:45.338Z,6.63
2022-08-25T05:01:15.827Z,6.50
2022-08-25T05:03:48.147Z,6.32
2022-08-25T05:06:16.242Z,9.95
2022-08-25T05:08:45.649Z,7.63
2022-08-25T05:11:14.822Z,4.18
2022-08-25T05:13:51.147Z,3.97
2022-08-25T05:16:19.163Z,3.53
2022-08-25T05:18:45.782Z,5.38
2022-08-25T05:21:15.600Z,7.35
2022-08-25T05:23:47.714Z,5.13
2022-08-25T05:26:20.324Z,4.30
2022-08-25T05:28:49.360Z,4.57
2022-08-25T05:31:16.227Z,5.28
2022-08-25T05:33:47.384Z,7.53
2022-08-25T05:36:14.973Z,6.22
2022-08-25T05:38:41.929Z,4.40
2022-08-25T05:41:12.596Z,6.25
2022-08-25T05:43:41.806Z,5.47
2022-08-25T05:46:09.670Z,6.53
2022-08-25T05:48:36.543Z,6.65
2022-08-25T05:51:06.053Z,9.50
2022-08-25T05:53:41.429Z,4.55
2022-08-25T05:56:08.733Z,5.10
2022-08-25T05:58:36.343Z,5.78
2022-08-25T06:01:23.671Z,4.68
2022-08-25T06:03:54.170Z,6.50
2022-08-25T06:06:22.898Z,6.57
2022-08-25T06:08:49.441Z,6.93
2022-08-25T06:11:16.585Z,8.45
2022-08-25T06:13:44.191Z,10.38
2022-08-25T06:16:10.797Z,4.35
2022-08-25T06:18:37.387Z,8.27
2022-08-25T06:21:12.959Z,9.95
2022-08-25T06:23:41.164Z,10.07
2022-08-25T06:26:20.742Z,6.32
2022-08-25T06:28:52.190Z,5.85
2022-08-25T06:31:19.691Z,12.52
2022-08-25T06:33:46.910Z,13.02
2022-08-25T06:36:13.827Z,10.88
2022-08-25T06:38:40.318Z,8.48
2022-08-25T06:41:08.547Z,8.07
2022-08-25T06:43:47.282Z,7.82
2022-08-25T06:46:18.865Z,8.45
2022-08-25T06:48:46.547Z,8.75
2022-08-25T06:51:16.232Z,4.78
2022-08-25T06:53:49.162Z,5.75
2022-08-25T06:56:17.583Z,8.07
2022-08-25T06:58:44.122Z,7.80
2022-08-25T07:01:20.301Z,5.82
2022-08-25T07:03:52.626Z,7.57
2022-08-25T07:06:19.757Z,5.82
2022-08-25T07:08:48.001Z,8.50
2022-08-25T07:11:16.530Z,5.85
2022-08-25T07:13:45.067Z,8.10
2022-08-25T07:16:11.958Z,6.15
2022-08-25T07:18:38.766Z,5.85
2022-08-25T07:21:05.783Z,5.63
2022-08-25T07:23:37.136Z,7.50
2022-08-25T07:26:15.755Z,5.85
2022-08-25T07:28:53.962Z,5.85
2022-08-25T07:31:21.422Z,7.07
2022-08-25T07:34:16.404Z,4.50
2022-08-25T07:36:43.422Z,8.30
2022-08-25T07:39:10.483Z,5.13
2022-08-25T07:41:39.503Z,8.23
2022-08-25T07:44:11.917Z,7.10
2022-08-25T07:46:39.666Z,7.57
2022-08-25T07:49:16.648Z,7.22
2022-08-25T07:52:04.285Z,8.82
2022-08-25T07:54:34.291Z,7.78
2022-08-25T07:57:03.401Z,5.75
2022-08-25T07:59:31.054Z,8.25
2022-08-25T08:02:08.123Z,6.40
2022-08-25T08:04:37.532Z,6.25
2022-08-25T08:07:05.134Z,8.73
2022-08-25T08:09:38.612Z,4.90
2022-08-25T08:12:05.578Z,7.78
2022-08-25T08:14:33.143Z,5.68
2022-08-25T08:16:59.825Z,10.43
2022-08-25T08:19:26.543Z,4.35
2022-08-25T08:21:53.645Z,6.50
2022-08-25T08:24:40.565Z,7.05
2022-08-25T08:27:08.725Z,6.57
2022-08-25T08:29:36.611Z,6.75
2022-08-25T08:32:04.878Z,5.85
2022-08-25T08:34:33.109Z,5.65
2022-08-25T08:37:00.961Z,7.45
2022-08-25T08:39:28.831Z,4.90
2022-08-25T08:42:17.266Z,5.00
2022-08-25T08:44:47.015Z,5.15
2022-08-25T08:47:17.381Z,8.52
2022-08-25T08:50:06.777Z,6.38
2022-08-25T08:52:43.311Z,6.55
2022-08-25T08:55:21.439Z,3.20
2022-08-25T08:57:51.880Z,6.22
2022-08-25T09:00:18.660Z,9.50
2022-08-25T09:03:10.534Z,9.15
2022-08-25T09:05:50.153Z,4.80
2022-08-25T09:08:20.464Z,5.80
2022-08-25T09:10:58.956Z,6.82
2022-08-25T09:13:37.714Z,5.20
2022-08-25T09:16:57.457Z,6.53
2022-08-25T09:19:46.023Z,5.97
2022-08-25T09:22:40.056Z,5.32
2022-08-25T09:25:22.059Z,4.45
2022-08-25T09:28:06.551Z,8.88
2022-08-25T09:30:41.890Z,5.10
2022-08-25T09:33:23.374Z,4.43
2022-08-25T09:35:53.800Z,5.50
2022-08-25T09:38:21.149Z,7.28
2022-08-25T09:40:56.083Z,6.88
2022-08-25T09:43:35.627Z,7.63
2022-08-25T09:46:08.724Z,6.65
2022-08-25T09:48:43.287Z,9.35
2022-08-25T09:53:54.917Z,6.75
2022-08-25T09:56:24.290Z,6.82
2022-08-25T09:58:58.181Z,5.88
2022-08-25T10:01:29.030Z,7.78
2022-08-25T10:04:06.362Z,5.40
2022-08-25T10:06:47.056Z,4.95
2022-08-25T10:09:26.892Z,5.95
2022-08-25T10:11:57.596Z,6.53
2022-08-25T10:14:44.218Z,9.45
2022-08-25T10:17:27.456Z,4.97
2022-08-25T10:20:12.191Z,5.82
2022-08-25T10:22:40.722Z,5.15
2022-08-25T10:25:10.703Z,6.15
2022-08-25T10:27:52.767Z,5.30
2022-08-25T10:30:31.341Z,6.43
2022-08-25T10:33:20.927Z,3.35
2022-08-25T10:36:04.641Z,6.60
2022-08-25T10:38:47.606Z,4.93
2022-08-25T10:41:38.652Z,3.80
2022-08-25T10:44:48.199Z,3.38
2022-08-25T10:47:39.521Z,5.68
2022-08-25T10:50:33.398Z,5.82
2022-08-25T10:53:27.595Z,4.28
2022-08-25T10:56:04.524Z,6.80
2022-08-25T10:58:54.369Z,4.97
2022-08-25T11:02:12.704Z,6.32
2022-08-25T11:04:53.272Z,4.53
2022-08-25T11:07:35.809Z,2.83
2022-08-25T11:10:14.337Z,3.35
2022-08-25T11:12:53.251Z,7.68
2022-08-25T11:15:25.394Z,3.20
2022-08-25T11:18:05.038Z,7.90
2022-08-25T11:20:51.611Z,4.80
2022-08-25T11:23:24.299Z,4.90
2022-08-25T11:26:00.899Z,2.92
2022-08-25T11:28:53.439Z,3.83
2022-08-25T11:31:21.899Z,3.38
2022-08-25T11:33:51.146Z,6.93
2022-08-25T11:36:20.659Z,3.97
2022-08-25T11:39:01.786Z,5.60
2022-08-25T11:41:47.097Z,2.58
2022-08-25T11:44:23.931Z,4.60
2022-08-25T11:46:59.581Z,3.47
2022-08-25T11:49:51.037Z,3.35
2022-08-25T11:52:32.834Z,4.10
2022-08-25T11:55:07.546Z,5.07
2022-08-25T11:57:37.582Z,4.72
2022-08-25T12:00:13.612Z,4.18
2022-08-25T12:02:48.622Z,4.75
2022-08-25T12:05:17.035Z,3.90
2022-08-25T12:08:12.829Z,4.43
2022-08-25T12:11:02.089Z,3.00
2022-08-25T12:13:51.012Z,5.43
2022-08-25T12:16:35.840Z,4.75
2022-08-25T12:19:36.456Z,3.95
2022-08-25T12:22:04.496Z,4.10
2022-08-25T12:24:49.589Z,3.55
2022-08-25T12:27:38.098Z,4.38
2022-08-25T12:30:21.079Z,5.65
2022-08-25T12:33:28.940Z,2.70
2022-08-25T12:36:03.354Z,4.22
2022-08-25T12:38:31.684Z,4.47
2022-08-25T12:41:04.648Z,2.60
2022-08-25T12:43:37.889Z,2.83
2022-08-25T12:46:19.842Z,8.18
2022-08-25T12:49:15.560Z,5.32
2022-08-25T12:52:11.450Z,4.20
2022-08-25T12:54:42.105Z,3.05
2022-08-25T12:57:36.684Z,3.30
2022-08-25T13:00:29.612Z,3.58
2022-08-25T13:03:24.693Z,4.70
2022-08-25T13:06:17.331Z,4.28
2022-08-25T13:08:56.319Z,3.08
2022-08-25T13:11:45.182Z,5.55
2022-08-25T13:14:41.286Z,5.65
2022-08-25T13:17:10.890Z,4.15
2022-08-25T13:19:38.552Z,2.70
2022-08-25T13:22:17.821Z,4.18
2022-08-25T13:24:47.410Z,3.47
2022-08-25T13:27:26.650Z,3.55
2022-08-25T13:29:56.862Z,4.72
2022-08-25T13:32:34.394Z,3.95
2022-08-25T13:35:17.773Z,3.50
2022-08-25T13:37:46.686Z,8.43
2022-08-25T13:40:25.895Z,4.97
2022-08-25T13:42:58.036Z,5.68
2022-08-25T13:45:29.975Z,3.30
2022-08-25T13:47:58.601Z,2.75
2022-08-25T13:50:31.090Z,2.30
2022-08-25T13:53:01.698Z,8.82
2022-08-25T13:55:38.116Z,3.28
2022-08-25T13:58:38.519Z,3.80
2022-08-25T14:01:22.407Z,3.28
2022-08-25T14:04:27.873Z,3.78
2022-08-25T14:07:08.513Z,3.38
2022-08-25T14:09:51.694Z,3.00
2022-08-25T14:12:40.759Z,3.93
2022-08-25T14:15:34.006Z,5.38
2022-08-25T14:18:26.734Z,2.40
2022-08-25T14:20:56.158Z,3.83
2022-08-25T14:23:30.597Z,4.30
2022-08-25T14:25:58.442Z,3.95
2022-08-25T14:28:29.004Z,3.33
2022-08-25T14:31:08.348Z,3.70
2022-08-25T14:33:50.097Z,3.65
2022-08-25T14:36:18.713Z,5.55
2022-08-25T14:38:47.806Z,4.75
2022-08-25T14:41:23.611Z,3.45
2022-08-25T14:43:54.138Z,8.82
2022-08-25T14:46:24.778Z,5.85
2022-08-25T14:48:55.465Z,6.03
2022-08-25T14:51:23.776Z,3.88
2022-08-25T14:53:56.185Z,2.22
2022-08-25T14:56:23.069Z,3.05
2022-08-25T14:58:51.486Z,2.85
2022-08-25T15:01:28.519Z,4.13
2022-08-25T15:04:08.078Z,5.70
2022-08-25T15:06:36.628Z,3.22
2022-08-25T15:09:07.999Z,4.63
2022-08-25T15:11:36.215Z,2.92
2022-08-25T15:14:06.861Z,4.90
2022-08-25T15:16:41.892Z,3.40
2022-08-25T15:19:14.372Z,2.63
2022-08-25T15:21:44.093Z,4.18
2022-08-25T15:24:18.395Z,2.22
2022-08-25T15:29:27.301Z,2.38
2022-08-25T15:31:53.989Z,2.92
2022-08-25T15:34:23.778Z,3.78
2022-08-25T15:36:51.333Z,2.95
2022-08-25T15:39:19.206Z,4.30
2022-08-25T15:41:52.161Z,4.07
2022-08-25T15:44:20.554Z,5.63
2022-08-25T15:46:49.874Z,4.88
2022-08-25T15:49:20.893Z,2.72
2022-08-25T15:51:52.469Z,5.38
2022-08-25T15:54:21.513Z,4.15
2022-08-25T15:56:48.074Z,7.45
2022-08-25T15:59:15.024Z,4.57
2022-08-25T16:01:43.032Z,4.03
2022-08-25T16:04:11.515Z,4.15
2022-08-25T16:06:38.650Z,4.57
2022-08-25T16:09:07.546Z,2.33
2022-08-25T16:11:35.358Z,4.32
2022-08-25T16:14:11.713Z,4.10
2022-08-25T16:16:40.585Z,4.65
2022-08-25T16:19:07.184Z,3.40
2022-08-25T16:21:35.568Z,4.80
2022-08-25T16:24:12.904Z,8.82
2022-08-25T16:26:46.276Z,3.90
2022-08-25T16:29:15.681Z,5.07
2022-08-25T16:31:43.542Z,4.18
2022-08-25T16:34:10.886Z,3.88
2022-08-25T16:36:38.987Z,4.50
2022-08-25T16:39:09.896Z,3.42
2022-08-25T16:41:37.328Z,4.20
2022-08-25T16:44:07.782Z,6.13
2022-08-25T16:46:40.723Z,3.95
2022-08-25T16:49:08.921Z,5.07
2022-08-25T16:51:36.886Z,2.83
2022-08-25T16:54:25.027Z,20.13
2022-08-25T16:56:53.727Z,3.60
2022-08-25T16:59:23.414Z,2.63
2022-08-25T17:01:50.641Z,5.07
2022-08-25T17:04:19.418Z,7.20
2022-08-25T17:06:49.592Z,2.47
2022-08-25T17:09:23.858Z,3.38
2022-08-25T17:11:52.548Z,6.57
2022-08-25T17:14:24.989Z,3.03
2022-08-25T17:16:54.743Z,5.65
2022-08-25T17:19:23.787Z,4.38
2022-08-25T17:21:50.736Z,4.18
2022-08-25T17:24:20.936Z,4.50
2022-08-25T17:26:50.752Z,4.72
2022-08-25T17:29:18.941Z,4.97
2022-08-25T17:31:46.317Z,3.03
2022-08-25T17:34:16.843Z,3.28
2022-08-25T17:36:47.202Z,5.07
2022-08-25T17:39:14.820Z,3.97
2022-08-25T17:41:43.917Z,4.50
2022-08-25T17:44:11.525Z,3.60
2022-08-25T17:46:44.126Z,4.25
2022-08-25T17:49:14.948Z,4.68
2022-08-25T17:51:42.267Z,7.30
2022-08-25T17:54:11.099Z,5.82
2022-08-25T17:56:37.882Z,4.90
2022-08-25T17:59:04.792Z,7.53
2022-08-25T18:01:34.297Z,6.75
2022-08-25T18:04:06.253Z,4.88
2022-08-25T18:06:43.636Z,5.55
2022-08-25T18:09:10.561Z,5.07
2022-08-25T18:11:37.090Z,5.95
2022-08-25T18:14:03.650Z,5.95
2022-08-25T18:16:30.410Z,9.25
2022-08-25T18:18:57.173Z,5.78
2022-08-25T18:21:25.323Z,7.65
2022-08-25T18:23:56.996Z,5.68
2022-08-25T18:26:25.522Z,5.22
2022-08-25T18:28:52.236Z,6.15
2022-08-25T18:31:19.783Z,4.00
2022-08-25T18:33:47.746Z,4.05
2022-08-25T18:36:18.013Z,7.72
2022-08-25T18:39:04.080Z,4.80
2022-08-25T18:41:38.486Z,6.13
2022-08-25T18:44:10.724Z,3.22
2022-08-25T18:46:37.848Z,6.13
2022-08-25T18:49:04.578Z,5.15
2022-08-25T18:51:32.833Z,6.05
2022-08-25T18:54:04.981Z,8.70
2022-08-25T18:56:31.669Z,11.80
2022-08-25T18:58:59.448Z,18.05
2022-08-25T19:01:26.287Z,10.27
2022-08-25T19:03:57.470Z,19.02
2022-08-25T19:06:24.116Z,15.65
2022-08-25T19:08:50.677Z,10.77
2022-08-25T19:11:22.200Z,11.77
2022-08-25T19:13:51.145Z,10.30
2022-08-25T19:16:30.877Z,9.80
2022-08-25T19:18:57.511Z,8.38
2022-08-25T19:21:25.048Z,9.93
2022-08-25T19:23:54.598Z,8.40
2022-08-25T19:26:21.711Z,11.40
2022-08-25T19:28:49.406Z,8.38
2022-08-25T19:31:20.759Z,13.65
2022-08-25T19:33:51.638Z,10.77
2022-08-25T19:36:21.244Z,11.27
2022-08-25T19:38:51.843Z,12.70
2022-08-25T19:41:19.044Z,11.63
2022-08-25T19:43:57.204Z,11.63
2022-08-25T19:46:32.263Z,12.70
2022-08-25T19:49:10.145Z,20.60
2022-08-25T19:51:40.930Z,20.58
2022-08-25T19:54:13.334Z,23.13
2022-08-25T19:56:53.979Z,23.27
2022-08-25T19:59:40.572Z,12.85
2022-08-25T20:02:15.409Z,20.98
2022-08-25T20:04:49.394Z,13.50
2022-08-25T20:07:18.326Z,12.85
2022-08-25T20:09:45.201Z,17.35
2022-08-25T20:12:12.494Z,12.65
2022-08-25T20:14:39.617Z,13.70
2022-08-25T20:17:14.555Z,11.77
2022-08-25T20:19:50.226Z,16.15
2022-08-25T20:22:17.703Z,12.48
2022-08-25T20:24:49.382Z,10.45
2022-08-25T20:27:20.492Z,11.45
2022-08-25T20:29:48.491Z,9.05
2022-08-25T20:32:22.692Z,14.13
2022-08-25T20:34:53.751Z,14.43
2022-08-25T20:37:22.455Z,14.98
2022-08-25T20:39:49.009Z,15.65
2022-08-25T20:42:16.234Z,18.58
2022-08-25T20:44:43.600Z,27.08
2022-08-25T20:47:10.997Z,24.50
2022-08-25T20:49:41.121Z,27.95
2022-08-25T20:52:08.546Z,30.95
2022-08-25T20:54:35.142Z,34.42
2022-08-25T20:57:02.713Z,35.38
2022-08-25T20:59:29.543Z,39.17
2022-08-25T21:01:56.506Z,42.55
2022-08-25T21:04:25.209Z,42.45
2022-08-25T21:06:51.989Z,44.65
2022-08-25T21:09:22.753Z,44.70
2022-08-25T21:11:53.068Z,44.17
2022-08-25T21:14:21.837Z,47.35
2022-08-25T21:16:49.120Z,50.90
2022-08-25T21:19:26.294Z,47.97
2022-08-25T21:21:54.390Z,53.35
2022-08-25T21:24:29.390Z,50.22
2022-08-25T21:26:57.962Z,52.22
2022-08-25T21:29:28.567Z,52.17
2022-08-25T21:31:59.665Z,52.97
2022-08-25T21:34:28.825Z,56.88
2022-08-25T21:36:57.811Z,55.50
2022-08-25T21:39:27.438Z,56.42
2022-08-25T21:41:55.410Z,58.60
2022-08-25T21:44:23.495Z,56.20
2022-08-25T21:46:54.199Z,56.58
2022-08-25T21:49:22.106Z,58.33
2022-08-25T21:51:59.357Z,56.80
2022-08-25T21:54:27.289Z,57.90
2022-08-25T21:57:01.244Z,58.28
2022-08-25T21:59:30.780Z,54.60
2022-08-25T22:02:10.130Z,54.65
2022-08-25T22:04:39.455Z,59.42
2022-08-25T22:07:07.805Z,58.05
2022-08-25T22:09:35.558Z,63.40
2022-08-25T22:12:03.039Z,55.55
2022-08-25T22:14:34.831Z,57.30
2022-08-25T22:17:01.765Z,56.13
2022-08-25T22:19:28.538Z,55.20
2022-08-25T22:21:55.966Z,58.03
2022-08-25T22:24:23.203Z,51.90
2022-08-25T22:26:55.440Z,52.35
2022-08-25T22:29:25.487Z,51.63
2022-08-25T22:32:00.630Z,47.50
2022-08-25T22:34:32.555Z,49.65
2022-08-25T22:37:01.365Z,50.33
2022-08-25T22:39:28.777Z,49.40
2022-08-25T22:41:55.592Z,51.28
2022-08-25T22:44:25.424Z,48.63
2022-08-25T22:46:52.283Z,48.13
2022-08-25T22:49:19.221Z,45.70
2022-08-25T22:51:47.680Z,42.80
2022-08-25T22:54:16.572Z,40.88
2022-08-25T22:56:43.445Z,38.05
2022-08-25T22:59:13.522Z,41.20
2022-08-25T23:01:42.515Z,38.05
2022-08-25T23:04:11.797Z,39.65
2022-08-25T23:06:39.637Z,35.92
2022-08-25T23:09:08.196Z,40.55
2022-08-25T23:11:38.560Z,34.03
2022-08-25T23:14:09.433Z,34.40
2022-08-25T23:16:36.222Z,33.72
2022-08-25T23:19:02.939Z,29.13
2022-08-25T23:21:48.428Z,24.67
2022-08-25T23:24:29.577Z,26.48
2022-08-25T23:26:58.549Z,29.55
2022-08-25T23:29:25.292Z,28.73
2022-08-25T23:31:52.220Z,30.33
2022-08-25T23:34:21.779Z,30.23
2022-08-25T23:36:48.807Z,33.47
2022-08-25T23:39:15.323Z,28.95
2022-08-25T23:41:42.069Z,26.73
2022-08-25T23:44:11.652Z,23.15
2022-08-25T23:46:44.400Z,22.92
2022-08-25T23:49:11.242Z,23.35
2022-08-25T23:51:38.486Z,18.70
2022-08-25T23:54:09.317Z,18.77
2022-08-25T23:56:42.239Z,21.23
2022-08-25T23:59:13.071Z,22.53
